Time;durP1;ratioP1;P1;durP2;ratioP2;P2;SDS_P1;SDS_P2;PMS_P1;PMS_P2;Temp;Humidity;BMP_temperature;BMP_pressure;BME280_temperature;BME280_humidity;BME280_pressure;Samples;Min_cycle;Max_cycle;Signal;HPM_P1;HPM_P2
2023/02/12 00:00:01;;;;;;;11.93;3.28;;;7.40;99.90;;;;;;5069796;28;20032;-64
2023/02/12 00:02:27;;;;;;;12.98;3.25;;;7.40;99.90;;;;;;5054185;28;20500;-64
2023/02/12 00:04:52;;;;;;;11.77;3.33;;;7.30;99.90;;;;;;5078113;28;20036;-62
2023/02/12 00:07:18;;;;;;;15.25;4.28;;;7.30;99.90;;;;;;5073418;28;20073;-64
2023/02/12 00:09:43;;;;;;;14.70;3.92;;;7.30;99.90;;;;;;5054829;28;20036;-64
2023/02/12 00:12:09;;;;;;;14.10;3.60;;;7.40;99.90;;;;;;5073823;28;20089;-64
2023/02/12 00:14:36;;;;;;;11.15;2.80;;;7.30;99.90;;;;;;5073822;28;20080;-64
2023/02/12 00:17:02;;;;;;;9.95;3.90;;;7.30;99.90;;;;;;5065969;28;20051;-63
2023/02/12 00:19:28;;;;;;;9.30;3.58;;;7.30;99.90;;;;;;5067028;28;20017;-64
2023/02/12 00:21:53;;;;;;;8.52;3.25;;;7.30;99.90;;;;;;5056623;28;20027;-63
2023/02/12 00:24:19;;;;;;;11.52;3.35;;;7.30;99.90;;;;;;5073093;28;20118;-64
2023/02/12 00:26:44;;;;;;;6.75;2.80;;;7.30;99.90;;;;;;5062388;28;20875;-63
2023/02/12 00:29:10;;;;;;;11.43;3.20;;;7.30;99.90;;;;;;5072125;28;20103;-64
2023/02/12 00:31:35;;;;;;;7.82;3.00;;;7.30;99.90;;;;;;5073875;28;20074;-64
2023/02/12 00:34:01;;;;;;;11.48;3.53;;;7.30;99.90;;;;;;5073000;28;20041;-63
2023/02/12 00:36:28;;;;;;;11.55;2.80;;;7.30;99.90;;;;;;5078836;28;20070;-64
2023/02/12 00:38:55;;;;;;;11.65;3.20;;;7.30;99.90;;;;;;5083901;28;20028;-63
2023/02/12 00:41:22;;;;;;;15.52;3.42;;;7.30;99.90;;;;;;5049561;28;20531;-63
2023/02/12 00:43:48;;;;;;;15.23;3.58;;;7.30;99.90;;;;;;5082000;28;20082;-62
2023/02/12 00:46:13;;;;;;;9.77;2.88;;;7.30;99.90;;;;;;5079319;28;20113;-63
2023/02/12 00:48:39;;;;;;;8.60;2.95;;;7.30;99.90;;;;;;5083917;28;20114;-62
2023/02/12 00:51:05;;;;;;;13.63;4.10;;;7.30;99.90;;;;;;5055510;28;20740;-63
2023/02/12 00:53:31;;;;;;;16.17;3.45;;;7.30;99.90;;;;;;5058863;28;20037;-63
2023/02/12 00:55:57;;;;;;;17.90;3.63;;;7.30;99.90;;;;;;5050066;28;20021;-64
2023/02/12 00:58:23;;;;;;;10.52;2.95;;;7.30;99.90;;;;;;5074645;28;20040;-64
2023/02/12 01:00:50;;;;;;;9.93;3.17;;;7.30;99.90;;;;;;5065492;28;20028;-64
2023/02/12 01:03:15;;;;;;;10.45;3.08;;;7.30;99.90;;;;;;5072585;28;20040;-64
2023/02/12 01:05:41;;;;;;;12.30;3.53;;;7.30;99.90;;;;;;5065948;28;20051;-63
2023/02/12 01:08:09;;;;;;;14.32;3.25;;;7.30;99.90;;;;;;5077378;28;20044;-64
2023/02/12 01:10:35;;;;;;;12.80;3.33;;;7.30;99.90;;;;;;5070468;28;20079;-64
2023/02/12 01:13:00;;;;;;;9.45;3.28;;;7.20;99.90;;;;;;5072611;28;20503;-63
2023/02/12 01:15:26;;;;;;;12.60;3.05;;;7.30;99.90;;;;;;5073996;28;20032;-64
2023/02/12 01:17:52;;;;;;;11.60;3.42;;;7.30;99.90;;;;;;5073372;28;20033;-64
2023/02/12 01:20:19;;;;;;;10.48;3.03;;;7.30;99.90;;;;;;5066094;28;20025;-64
2023/02/12 01:22:45;;;;;;;10.48;2.70;;;7.30;99.90;;;;;;5064681;28;20044;-63
2023/02/12 01:25:11;;;;;;;14.60;3.80;;;7.30;99.90;;;;;;5068314;28;20024;-64
2023/02/12 01:27:36;;;;;;;16.55;3.35;;;7.20;99.90;;;;;;5066979;28;20036;-63
2023/02/12 01:30:06;;;;;;;15.48;3.08;;;7.30;99.90;;;;;;5070581;28;20620;-64
2023/02/12 01:32:32;;;;;;;7.20;3.22;;;7.30;99.90;;;;;;5065866;28;20435;-64
2023/02/12 01:34:58;;;;;;;9.65;3.75;;;7.20;99.90;;;;;;5064901;28;20028;-64
2023/02/12 01:37:23;;;;;;;12.38;3.80;;;7.20;99.90;;;;;;5057799;28;20082;-63
2023/02/12 01:39:49;;;;;;;10.52;3.10;;;7.20;99.90;;;;;;5061121;28;20060;-64
2023/02/12 01:42:17;;;;;;;10.15;3.30;;;7.10;99.90;;;;;;5086402;28;20380;-64
2023/02/12 01:45:04;;;;;;;12.57;3.45;;;7.10;99.90;;;;;;5065970;28;20044;-63
2023/02/12 01:47:29;;;;;;;22.30;3.90;;;7.10;99.90;;;;;;5047175;28;20568;-64
2023/02/12 01:49:55;;;;;;;13.07;3.85;;;7.00;99.90;;;;;;5084650;28;20098;-64
2023/02/12 01:52:28;;;;;;;11.40;3.38;;;7.00;99.90;;;;;;5068646;28;20127;-64
2023/02/12 01:54:59;;;;;;;9.55;2.95;;;7.00;99.90;;;;;;5065372;28;20030;-63
2023/02/12 01:57:27;;;;;;;11.35;3.80;;;7.00;99.90;;;;;;5048067;28;20029;-64
2023/02/12 01:59:54;;;;;;;13.80;3.55;;;7.00;99.90;;;;;;5085524;28;20503;-63
2023/02/12 02:02:20;;;;;;;13.52;3.55;;;7.00;99.90;;;;;;5066029;28;20541;-63
2023/02/12 02:04:52;;;;;;;8.02;2.90;;;6.90;99.90;;;;;;5068203;28;20028;-65
2023/02/12 02:07:18;;;;;;;7.90;2.78;;;6.90;99.90;;;;;;5076667;28;20076;-63
2023/02/12 02:09:44;;;;;;;12.07;3.30;;;6.90;99.90;;;;;;5046797;28;20454;-63
2023/02/12 02:14:56;;;;;;;14.45;3.85;;;6.90;99.90;;;;;;5087304;28;20046;-63
2023/02/12 02:17:52;;;;;;;13.82;3.30;;;6.90;99.90;;;;;;5065993;28;20090;-63
2023/02/12 02:20:33;;;;;;;12.07;3.40;;;7.00;99.90;;;;;;5067775;28;20103;-64
2023/02/12 02:23:28;;;;;;;9.98;2.92;;;6.90;99.90;;;;;;5058450;28;20047;-63
2023/02/12 02:26:18;;;;;;;10.02;3.03;;;6.90;99.90;;;;;;5087859;28;20023;-63
2023/02/12 02:29:07;;;;;;;11.00;3.03;;;7.00;99.90;;;;;;5053901;28;20096;-63
2023/02/12 02:32:07;;;;;;;12.20;2.92;;;7.00;99.90;;;;;;5047631;28;20037;-64
2023/02/12 02:34:53;;;;;;;11.50;2.45;;;7.00;99.90;;;;;;5066522;28;20115;-63
2023/02/12 02:37:30;;;;;;;17.65;4.25;;;7.00;99.90;;;;;;5047414;28;20071;-48
2023/02/12 02:40:17;;;;;;;14.18;3.55;;;7.00;99.90;;;;;;5087805;28;20442;-64
2023/02/12 02:42:50;;;;;;;7.82;2.90;;;7.00;99.90;;;;;;5053834;28;20441;-63
2023/02/12 02:45:39;;;;;;;9.68;3.03;;;7.00;99.90;;;;;;5087827;28;20103;-64
2023/02/12 02:48:32;;;;;;;11.75;3.35;;;7.00;99.90;;;;;;5059802;28;20085;-64
2023/02/12 02:51:07;;;;;;;9.73;3.30;;;7.00;99.90;;;;;;5047492;28;20058;-65
2023/02/12 02:53:42;;;;;;;13.80;4.35;;;7.00;99.90;;;;;;5067504;28;20598;-64
2023/02/12 02:56:13;;;;;;;10.75;3.05;;;7.00;99.90;;;;;;5047491;28;20029;-64
2023/02/12 02:58:43;;;;;;;10.80;3.40;;;7.00;99.90;;;;;;5057378;28;20025;-63
2023/02/12 03:01:16;;;;;;;12.82;3.80;;;7.00;99.90;;;;;;5087398;28;20903;-63
2023/02/12 03:03:49;;;;;;;8.57;3.30;;;7.00;99.90;;;;;;5057584;28;20036;-63
2023/02/12 03:06:31;;;;;;;14.70;3.58;;;7.00;99.90;;;;;;5082524;28;20032;-64
2023/02/12 03:09:02;;;;;;;13.18;2.88;;;7.00;99.90;;;;;;5063658;28;20442;-63
2023/02/12 03:11:32;;;;;;;8.95;3.40;;;7.10;99.90;;;;;;5051265;28;20044;-63
2023/02/12 03:14:17;;;;;;;11.20;3.33;;;7.00;99.90;;;;;;5074636;28;20081;-64
2023/02/12 03:16:59;;;;;;;8.82;3.10;;;7.00;99.90;;;;;;5050957;28;20021;-62
2023/02/12 03:19:39;;;;;;;10.75;2.42;;;7.10;99.90;;;;;;5067220;28;20021;-63
2023/02/12 03:22:20;;;;;;;13.05;4.00;;;7.00;99.90;;;;;;5050968;28;20504;-63
2023/02/12 03:24:57;;;;;;;15.00;3.45;;;7.00;99.90;;;;;;5050894;28;20048;-63
2023/02/12 03:27:32;;;;;;;9.60;3.58;;;7.00;99.90;;;;;;5051466;28;20500;-63
2023/02/12 03:29:58;;;;;;;16.33;3.50;;;7.00;99.90;;;;;;5091077;28;20148;-63
2023/02/12 03:32:37;;;;;;;8.23;3.55;;;7.00;99.90;;;;;;5069186;28;20086;-62
2023/02/12 03:35:30;;;;;;;11.68;3.58;;;7.00;99.90;;;;;;5070728;28;20036;-64
2023/02/12 03:38:01;;;;;;;11.80;3.90;;;7.00;99.90;;;;;;5060467;28;20028;-63
2023/02/12 03:40:38;;;;;;;10.23;3.45;;;7.00;99.90;;;;;;5089361;28;20038;-63
2023/02/12 03:43:24;;;;;;;11.38;2.92;;;7.00;99.90;;;;;;5062717;28;20036;-63
2023/02/12 03:46:13;;;;;;;17.98;4.38;;;7.00;99.90;;;;;;5050553;28;20071;-62
2023/02/12 03:48:49;;;;;;;18.50;3.65;;;6.90;99.90;;;;;;5088702;28;20054;-62
2023/02/12 03:51:25;;;;;;;16.35;3.55;;;6.90;99.90;;;;;;5070412;28;20031;-63
2023/02/12 03:53:51;;;;;;;20.65;3.88;;;6.90;99.90;;;;;;5061974;28;20404;-63
2023/02/12 03:56:22;;;;;;;11.15;3.63;;;6.90;99.90;;;;;;5089646;28;20036;-63
2023/02/12 03:58:48;;;;;;;12.13;3.05;;;6.90;99.90;;;;;;5061492;28;20032;-62
2023/02/12 04:01:14;;;;;;;14.57;3.17;;;6.90;99.90;;;;;;5089885;28;20032;-63
2023/02/12 04:03:40;;;;;;;8.80;3.05;;;6.90;99.90;;;;;;5056701;28;20501;-61
2023/02/12 04:06:22;;;;;;;8.43;3.15;;;6.90;99.90;;;;;;5063641;28;20253;-63
2023/02/12 04:08:48;;;;;;;12.45;2.97;;;6.80;99.90;;;;;;5074484;28;20306;-63
2023/02/12 04:11:39;;;;;;;13.70;3.03;;;6.80;99.90;;;;;;5070446;28;20116;-63
2023/02/12 04:14:19;;;;;;;14.00;3.85;;;6.80;99.90;;;;;;5063511;28;20033;-55
2023/02/12 04:16:55;;;;;;;7.35;2.40;;;6.80;99.90;;;;;;5049547;28;20029;-66
2023/02/12 04:19:33;;;;;;;13.32;3.47;;;6.80;99.90;;;;;;5065580;28;20043;-67
2023/02/12 04:22:13;;;;;;;12.75;2.38;;;6.80;99.90;;;;;;5049677;28;20033;-67
2023/02/12 04:24:59;;;;;;;10.70;3.08;;;6.70;99.90;;;;;;5050055;28;20235;-65
2023/02/12 04:27:40;;;;;;;4.07;1.52;;;6.70;99.90;;;;;;5069548;28;20110;-67
2023/02/12 04:30:11;;;;;;;15.75;3.00;;;6.70;99.90;;;;;;5049850;28;20037;-67
2023/02/12 04:32:43;;;;;;;9.98;2.72;;;6.60;99.90;;;;;;5060812;28;20496;-65
2023/02/12 04:35:17;;;;;;;16.05;3.38;;;6.60;99.90;;;;;;5049553;28;20291;-66
2023/02/12 04:37:49;;;;;;;11.60;3.15;;;6.60;99.90;;;;;;5061324;28;20484;-65
2023/02/12 04:40:17;;;;;;;7.55;2.97;;;6.60;99.90;;;;;;5049456;28;20033;-66
2023/02/12 04:42:44;;;;;;;10.05;2.35;;;6.50;99.90;;;;;;5073465;28;20180;-66
2023/02/12 04:45:12;;;;;;;17.13;2.55;;;6.50;99.90;;;;;;5089177;28;20026;-66
2023/02/12 04:47:38;;;;;;;17.10;3.08;;;6.60;99.90;;;;;;5054733;28;20064;-65
2023/02/12 04:50:04;;;;;;;10.15;2.53;;;6.50;99.90;;;;;;5068343;28;20516;-67
2023/02/12 04:52:30;;;;;;;10.02;2.90;;;6.50;99.90;;;;;;5075332;28;20036;-66
2023/02/12 04:54:55;;;;;;;11.10;2.28;;;6.50;99.90;;;;;;5088611;28;20044;-66
2023/02/12 04:57:21;;;;;;;12.27;2.95;;;6.60;99.90;;;;;;5067886;28;20028;-66
2023/02/12 04:59:46;;;;;;;11.65;2.92;;;6.50;99.90;;;;;;5088516;28;20042;-66
2023/02/12 05:02:12;;;;;;;10.27;2.00;;;6.50;99.90;;;;;;5067695;28;20035;-66
2023/02/12 05:04:37;;;;;;;10.55;2.08;;;6.60;99.90;;;;;;5086459;28;20559;-65
2023/02/12 05:07:03;;;;;;;19.10;2.67;;;6.50;99.90;;;;;;5064141;28;20040;-68
2023/02/12 05:09:28;;;;;;;13.77;3.05;;;6.50;99.90;;;;;;5088361;28;20028;-66
2023/02/12 05:11:54;;;;;;;16.17;4.22;;;6.50;99.90;;;;;;5067361;28;20499;-66
2023/02/12 05:14:19;;;;;;;16.05;2.95;;;6.60;99.90;;;;;;5068801;28;20027;-66
2023/02/12 05:16:45;;;;;;;10.15;3.22;;;6.60;99.90;;;;;;5086342;28;20565;-67
2023/02/12 05:19:10;;;;;;;12.73;2.85;;;6.60;99.90;;;;;;5088924;28;20077;-66
2023/02/12 05:21:37;;;;;;;11.60;2.75;;;6.50;99.90;;;;;;5067346;28;20539;-63
2023/02/12 05:24:03;;;;;;;10.68;2.80;;;6.50;99.90;;;;;;5068887;28;20120;-66
2023/02/12 05:26:28;;;;;;;11.88;2.22;;;6.50;99.90;;;;;;5086265;28;20103;-67
2023/02/12 05:28:54;;;;;;;11.18;2.63;;;6.50;99.90;;;;;;5088139;28;20032;-67
2023/02/12 05:31:20;;;;;;;13.57;2.97;;;6.50;99.90;;;;;;5067238;28;20060;-67
2023/02/12 05:33:46;;;;;;;11.63;3.03;;;6.60;99.90;;;;;;5068405;28;20042;-66
2023/02/12 05:36:15;;;;;;;12.98;3.25;;;6.50;99.90;;;;;;5086163;28;20040;-66
2023/02/12 05:38:41;;;;;;;14.10;3.55;;;6.60;99.90;;;;;;5088909;28;20020;-66
2023/02/12 05:41:15;;;;;;;16.85;3.33;;;6.50;99.90;;;;;;5066991;28;20392;-66
2023/02/12 05:43:41;;;;;;;13.18;2.63;;;6.50;99.90;;;;;;5068130;28;20101;-67
2023/02/12 05:46:07;;;;;;;23.42;3.50;;;6.50;99.90;;;;;;5085871;28;20491;-66
2023/02/12 05:48:33;;;;;;;7.43;2.55;;;6.50;99.90;;;;;;5088521;28;20028;-67
2023/02/12 05:51:08;;;;;;;12.43;2.47;;;6.50;99.90;;;;;;5068601;28;20533;-67
2023/02/12 05:53:33;;;;;;;15.82;3.92;;;6.60;99.90;;;;;;5068311;28;20148;-67
2023/02/12 05:56:07;;;;;;;13.23;3.40;;;6.60;99.90;;;;;;5087530;28;20106;-66
2023/02/12 05:58:32;;;;;;;16.70;3.90;;;6.60;99.90;;;;;;5087688;28;20036;-67
2023/02/12 06:00:57;;;;;;;14.00;2.83;;;6.60;99.90;;;;;;5087658;28;20360;-66
2023/02/12 06:03:23;;;;;;;13.60;2.65;;;6.60;99.90;;;;;;5047344;28;20033;-67
2023/02/12 06:05:52;;;;;;;10.63;2.30;;;6.60;99.90;;;;;;5070974;28;20358;-66
2023/02/12 06:08:18;;;;;;;12.60;3.47;;;6.60;99.90;;;;;;5048076;28;20049;-67
2023/02/12 06:10:43;;;;;;;12.88;2.63;;;6.60;99.90;;;;;;5067225;28;20040;-66
2023/02/12 06:13:09;;;;;;;10.48;2.63;;;6.60;99.90;;;;;;5068250;28;20066;-66
2023/02/12 06:15:37;;;;;;;19.27;3.22;;;6.60;99.90;;;;;;5087347;28;20504;-67
2023/02/12 06:18:02;;;;;;;12.65;2.63;;;6.60;99.90;;;;;;5050026;28;20084;-66
2023/02/12 06:20:28;;;;;;;10.82;2.63;;;6.60;99.90;;;;;;5067209;28;20060;-66
2023/02/12 06:22:54;;;;;;;17.00;3.38;;;6.60;99.90;;;;;;5070271;28;20392;-66
2023/02/12 06:25:19;;;;;;;13.88;2.90;;;6.60;99.90;;;;;;5087488;28;20047;-67
2023/02/12 06:27:45;;;;;;;12.30;2.33;;;6.60;99.90;;;;;;5052456;28;20373;-66
2023/02/12 06:30:11;;;;;;;10.98;2.53;;;6.60;99.90;;;;;;5067091;28;20421;-66
2023/02/12 06:32:36;;;;;;;15.73;2.75;;;6.70;99.90;;;;;;5072443;28;20036;-65
2023/02/12 06:35:02;;;;;;;12.52;2.40;;;6.70;99.90;;;;;;5087120;28;20032;-66
2023/02/12 06:37:27;;;;;;;9.80;2.50;;;6.70;99.90;;;;;;5055000;28;20100;-66
2023/02/12 06:39:53;;;;;;;11.30;2.65;;;6.70;99.90;;;;;;5066799;28;20388;-66
2023/02/12 06:42:19;;;;;;;17.98;4.20;;;6.70;99.90;;;;;;5089050;28;20032;-67
2023/02/12 06:44:45;;;;;;;13.57;2.50;;;6.70;99.90;;;;;;5072277;28;20652;-67
2023/02/12 06:47:11;;;;;;;19.92;2.75;;;6.70;99.90;;;;;;5089406;28;20229;-66
2023/02/12 06:49:36;;;;;;;13.63;2.55;;;6.70;99.90;;;;;;5072102;28;20024;-65
2023/02/12 06:52:02;;;;;;;12.45;2.72;;;6.70;99.90;;;;;;5089263;28;20089;-67
2023/02/12 06:54:27;;;;;;;10.45;2.97;;;6.70;99.90;;;;;;5072165;28;20116;-67
2023/02/12 06:56:53;;;;;;;12.63;3.50;;;6.70;99.90;;;;;;5089050;28;20032;-68
2023/02/12 06:59:18;;;;;;;17.38;4.50;;;6.70;99.90;;;;;;5091912;28;20020;-66
2023/02/12 07:01:44;;;;;;;11.20;3.13;;;6.70;99.90;;;;;;5069983;28;20072;-66
2023/02/12 07:04:10;;;;;;;13.00;3.53;;;6.70;99.90;;;;;;5050136;28;20059;-67
2023/02/12 07:06:35;;;;;;;11.07;2.78;;;6.70;99.90;;;;;;5068703;28;20020;-66
2023/02/12 07:09:02;;;;;;;8.50;2.97;;;6.70;99.90;;;;;;5071418;28;20035;-67
2023/02/12 07:11:30;;;;;;;13.57;3.22;;;6.70;99.90;;;;;;5091356;28;20039;-67
2023/02/12 07:13:56;;;;;;;12.90;3.30;;;6.80;99.90;;;;;;5052032;28;20021;-66
2023/02/12 07:16:22;;;;;;;12.57;3.58;;;6.80;99.90;;;;;;5090598;28;20047;-67
2023/02/12 07:18:48;;;;;;;17.75;3.85;;;6.80;99.90;;;;;;5053422;28;20033;-66
2023/02/12 07:21:15;;;;;;;19.60;5.18;;;6.80;99.90;;;;;;5070675;28;20037;-66
2023/02/12 07:23:44;;;;;;;9.80;3.80;;;6.90;99.90;;;;;;5073284;28;20028;-67
2023/02/12 07:26:12;;;;;;;9.85;4.18;;;6.90;99.90;;;;;;5090197;28;20020;-67
2023/02/12 07:28:38;;;;;;;12.50;3.10;;;6.90;99.90;;;;;;5054485;28;20484;-65
2023/02/12 07:31:19;;;;;;;10.50;3.38;;;6.90;99.90;;;;;;5070761;28;20388;-68
2023/02/12 07:33:45;;;;;;;11.98;3.03;;;6.90;99.90;;;;;;5065574;28;20036;-66
2023/02/12 07:36:14;;;;;;;8.90;3.42;;;7.00;99.90;;;;;;5090813;28;20051;-66
2023/02/12 07:38:40;;;;;;;12.65;3.40;;;7.00;99.90;;;;;;5053806;28;20029;-66
2023/02/12 07:41:10;;;;;;;13.98;3.30;;;7.00;99.90;;;;;;5070412;28;20098;-67
2023/02/12 07:43:36;;;;;;;12.55;3.00;;;7.00;99.90;;;;;;5064570;28;20429;-66
2023/02/12 07:46:10;;;;;;;15.00;3.47;;;7.10;99.90;;;;;;5082163;28;20035;-66
2023/02/12 07:48:36;;;;;;;15.13;3.78;;;7.20;99.90;;;;;;5050772;28;20108;-66
2023/02/12 07:51:04;;;;;;;16.08;4.03;;;7.20;99.90;;;;;;5078251;28;20608;-66
2023/02/12 07:53:30;;;;;;;15.13;4.15;;;7.20;99.90;;;;;;5050887;28;20063;-66
2023/02/12 07:56:07;;;;;;;12.07;3.70;;;7.20;99.90;;;;;;5068098;28;20101;-66
2023/02/12 07:58:32;;;;;;;15.93;3.85;;;7.30;99.90;;;;;;5070808;28;20040;-66
2023/02/12 08:00:57;;;;;;;8.80;3.38;;;7.30;99.90;;;;;;5088286;28;20384;-66
2023/02/12 08:03:23;;;;;;;9.13;3.15;;;7.30;99.90;;;;;;5090814;28;20474;-66
2023/02/12 08:05:48;;;;;;;9.25;3.15;;;7.30;99.90;;;;;;5073715;28;20040;-65
2023/02/12 08:08:14;;;;;;;13.98;3.60;;;7.30;99.90;;;;;;5085976;28;20083;-66
2023/02/12 08:10:39;;;;;;;12.48;3.60;;;7.30;99.90;;;;;;5069170;28;20037;-65
2023/02/12 08:13:05;;;;;;;18.90;3.65;;;7.30;99.90;;;;;;5070336;28;20116;-67
2023/02/12 08:15:30;;;;;;;12.68;3.33;;;7.40;99.90;;;;;;5087584;28;20077;-46
2023/02/12 08:17:56;;;;;;;8.90;3.20;;;7.40;99.90;;;;;;5050313;28;20076;-47
2023/02/12 08:20:21;;;;;;;16.75;4.00;;;7.50;99.90;;;;;;5089277;28;20024;-47
2023/02/12 08:22:46;;;;;;;15.82;3.38;;;7.50;99.90;;;;;;5049937;28;20024;-46
2023/02/12 08:25:12;;;;;;;15.30;4.38;;;7.50;99.90;;;;;;5068023;28;20020;-48
2023/02/12 08:27:40;;;;;;;11.18;3.65;;;7.60;99.90;;;;;;5069924;28;20029;-47
2023/02/12 08:30:06;;;;;;;10.35;3.90;;;7.60;99.90;;;;;;5089882;28;20136;-45
2023/02/12 08:32:32;;;;;;;13.25;3.92;;;7.70;99.90;;;;;;5051826;28;20087;-45
2023/02/12 08:34:58;;;;;;;13.27;4.65;;;7.70;99.90;;;;;;5069410;28;20028;-45
2023/02/12 08:37:23;;;;;;;14.38;4.60;;;7.80;99.90;;;;;;5074991;28;20058;-46
2023/02/12 08:39:49;;;;;;;14.25;5.57;;;7.80;99.90;;;;;;5089150;28;20417;-43
2023/02/12 08:42:14;;;;;;;15.38;5.20;;;7.80;99.90;;;;;;5054030;28;20029;-57
2023/02/12 08:44:41;;;;;;;15.73;4.90;;;7.90;99.90;;;;;;5069112;28;20048;-48
2023/02/12 08:47:08;;;;;;;15.65;6.35;;;7.90;99.90;;;;;;5073979;28;20523;-48
2023/02/12 08:49:34;;;;;;;15.63;5.82;;;8.00;99.90;;;;;;5089504;28;20085;-47
2023/02/12 08:52:01;;;;;;;20.48;7.32;;;8.00;99.90;;;;;;5062196;28;20504;-45
2023/02/12 08:54:28;;;;;;;16.58;7.25;;;8.00;99.90;;;;;;5069835;28;20037;-47
2023/02/12 08:56:55;;;;;;;20.95;7.40;;;8.10;99.90;;;;;;5054540;28;20029;-48
2023/02/12 08:59:21;;;;;;;20.58;6.97;;;8.10;99.90;;;;;;5063684;28;20048;-43
2023/02/12 09:01:50;;;;;;;14.93;6.00;;;8.20;99.90;;;;;;5067589;28;20028;-49
2023/02/12 09:04:20;;;;;;;22.42;7.75;;;8.20;99.90;;;;;;5080169;28;20032;-52
2023/02/12 09:06:47;;;;;;;18.25;7.20;;;8.30;99.90;;;;;;5044783;28;20033;-47
2023/02/12 09:09:13;;;;;;;21.30;6.88;;;8.30;99.90;;;;;;5066149;28;20020;-49
2023/02/12 09:11:39;;;;;;;27.98;6.43;;;8.30;99.90;;;;;;5068238;28;20016;-48
2023/02/12 09:14:07;;;;;;;15.68;5.70;;;8.40;99.90;;;;;;5084283;28;20043;-46
2023/02/12 09:16:35;;;;;;;14.75;5.20;;;8.50;99.90;;;;;;5048589;28;20036;-46
2023/02/12 09:19:01;;;;;;;17.45;5.82;;;8.50;99.90;;;;;;5083409;28;20024;-51
2023/02/12 09:21:26;;;;;;;22.05;6.07;;;8.50;99.90;;;;;;5046653;28;20039;-47
2023/02/12 09:23:52;;;;;;;18.95;5.53;;;8.60;99.90;;;;;;5072312;28;20036;-44
2023/02/12 09:26:20;;;;;;;18.85;6.25;;;8.60;99.90;;;;;;5048111;28;20029;-46
2023/02/12 09:28:46;;;;;;;17.60;6.38;;;8.70;99.90;;;;;;5068546;28;20028;-51
2023/02/12 09:31:15;;;;;;;16.98;6.72;;;8.70;99.90;;;;;;5067909;28;20390;-49
2023/02/12 09:33:41;;;;;;;13.02;6.43;;;8.70;99.90;;;;;;5068148;28;20496;-44
2023/02/12 09:36:15;;;;;;;20.48;5.85;;;8.70;99.90;;;;;;5064606;28;20045;-49
2023/02/12 09:38:42;;;;;;;13.18;5.20;;;8.70;99.90;;;;;;5049241;28;20436;-44
2023/02/12 09:41:18;;;;;;;17.42;5.18;;;8.80;99.90;;;;;;5068132;28;20024;-45
2023/02/12 09:43:47;;;;;;;;;;;8.80;99.90;;;;;;5049220;28;20055;-48
2023/02/12 09:46:20;;;;;;;17.08;4.10;;;8.90;99.90;;;;;;5067914;28;20339;-46
2023/02/12 09:49:08;;;;;;;9.98;3.78;;;8.90;99.90;;;;;;5048548;28;20485;-46
2023/02/12 09:51:36;;;;;;;16.27;4.88;;;9.00;99.90;;;;;;5048748;28;20507;-44
2023/02/12 09:54:09;;;;;;;16.95;4.57;;;9.10;99.90;;;;;;5085137;28;20643;-46
2023/02/12 09:56:37;;;;;;;16.48;4.80;;;9.20;99.90;;;;;;5048521;28;20061;-48
2023/02/12 09:59:06;;;;;;;13.23;4.43;;;9.20;99.90;;;;;;5083669;28;20031;-45
2023/02/12 10:01:32;;;;;;;14.25;4.03;;;9.30;99.90;;;;;;5048581;28;20043;-44
2023/02/12 10:03:58;;;;;;;14.60;4.70;;;9.20;99.90;;;;;;5087541;28;20048;-43
2023/02/12 10:06:32;;;;;;;10.77;3.80;;;9.30;99.90;;;;;;5043513;28;20036;-47
2023/02/12 10:09:22;;;;;;;10.93;4.82;;;9.30;99.90;;;;;;5088229;28;20531;-46
2023/02/12 10:11:52;;;;;;;16.30;4.72;;;9.30;99.90;;;;;;5088565;28;20024;-46
2023/02/12 10:15:03;;;;;;;14.00;4.70;;;9.40;99.90;;;;;;5062962;28;20455;-46
2023/02/12 10:17:41;;;;;;;10.18;4.05;;;9.60;99.90;;;;;;5058819;28;20031;-46
2023/02/12 10:20:06;;;;;;;14.13;4.45;;;9.80;99.90;;;;;;5064115;28;20109;-49
2023/02/12 10:22:49;;;;;;;9.55;3.40;;;9.90;99.90;;;;;;5084437;28;20085;-45
2023/02/12 10:25:33;;;;;;;13.98;3.90;;;10.10;99.90;;;;;;5065169;28;20062;-46
2023/02/12 10:28:04;;;;;;;12.93;4.47;;;10.20;99.90;;;;;;5047169;28;20065;-47
2023/02/12 10:30:49;;;;;;;11.45;3.70;;;10.30;99.90;;;;;;5067341;28;20499;-47
2023/02/12 10:33:47;;;;;;;6.47;2.80;;;10.40;99.90;;;;;;5048575;28;20047;-44
2023/02/12 10:36:28;;;;;;;6.53;2.50;;;10.40;99.90;;;;;;5087496;28;20581;-52
2023/02/12 10:39:14;;;;;;;8.18;2.60;;;10.50;99.90;;;;;;5065916;28;20020;-47
2023/02/12 10:41:55;;;;;;;11.93;2.60;;;10.50;99.90;;;;;;5082093;28;20106;-45
2023/02/12 10:44:21;;;;;;;7.47;1.83;;;10.50;99.90;;;;;;5059965;28;20520;-47
2023/02/12 10:46:46;;;;;;;9.85;2.30;;;10.50;99.90;;;;;;5087586;28;20039;-51
2023/02/12 10:49:15;;;;;;;6.38;2.38;;;10.50;99.90;;;;;;5054658;28;20250;-49
2023/02/12 10:51:57;;;;;;;7.35;2.30;;;10.50;99.90;;;;;;5087553;28;20420;-47
2023/02/12 10:54:44;;;;;;;8.07;2.55;;;10.50;99.90;;;;;;5059983;28;20688;-44
2023/02/12 10:57:24;;;;;;;7.05;2.53;;;10.50;99.90;;;;;;5087895;28;20032;-46
2023/02/12 10:59:52;;;;;;;7.13;2.83;;;10.50;99.90;;;;;;5063744;28;20033;-48
2023/02/12 11:02:24;;;;;;;8.38;3.13;;;10.50;99.90;;;;;;5087905;28;20028;-45
2023/02/12 11:04:50;;;;;;;12.15;2.58;;;10.50;99.90;;;;;;5066379;28;20416;-46
2023/02/12 11:07:16;;;;;;;11.05;3.17;;;10.60;99.90;;;;;;5087808;28;20092;-46
2023/02/12 11:09:47;;;;;;;9.73;3.60;;;10.60;99.90;;;;;;5057399;28;20112;-45
2023/02/12 11:12:28;;;;;;;5.55;2.63;;;10.60;99.90;;;;;;5047820;28;20046;-44
2023/02/12 11:14:59;;;;;;;8.13;2.88;;;10.60;99.90;;;;;;5049398;28;20698;-46
2023/02/12 11:17:39;;;;;;;10.45;3.40;;;10.60;99.90;;;;;;5084208;28;20127;-47
2023/02/12 11:20:38;;;;;;;11.35;4.18;;;10.50;99.90;;;;;;5088036;28;20035;-48
2023/02/12 11:23:20;;;;;;;10.73;2.63;;;10.40;99.90;;;;;;5067319;28;20044;-44
2023/02/12 11:25:56;;;;;;;7.82;2.92;;;10.30;99.90;;;;;;5047937;28;20112;-44
2023/02/12 11:28:21;;;;;;;8.00;2.20;;;10.30;99.90;;;;;;5063396;28;20384;-43
2023/02/12 11:31:13;;;;;;;8.25;2.67;;;10.30;99.90;;;;;;5091471;28;20032;-43
2023/02/12 11:33:39;;;;;;;8.82;2.92;;;10.20;99.90;;;;;;5066346;28;20044;-44
2023/02/12 11:36:22;;;;;;;5.55;2.10;;;10.10;99.90;;;;;;5096321;28;20032;-44
2023/02/12 11:38:57;;;;;;;8.73;3.08;;;10.10;99.90;;;;;;5067156;28;20051;-45
2023/02/12 11:41:35;;;;;;;5.50;2.15;;;10.20;99.90;;;;;;5066979;28;20025;-45
2023/02/12 11:44:08;;;;;;;10.27;3.15;;;10.20;99.90;;;;;;5071075;28;20040;-49
2023/02/12 11:46:34;;;;;;;9.63;2.83;;;10.30;99.90;;;;;;5051535;28;20128;-45
2023/02/12 11:49:00;;;;;;;4.70;2.10;;;10.40;99.90;;;;;;5069267;28;20556;-47
2023/02/12 11:51:29;;;;;;;9.68;3.17;;;10.40;99.90;;;;;;5090943;28;20085;-48
2023/02/12 11:53:58;;;;;;;8.13;2.65;;;10.50;99.90;;;;;;5051550;28;20029;-45
2023/02/12 11:56:38;;;;;;;9.55;2.50;;;10.50;99.90;;;;;;5071082;28;20031;-44
2023/02/12 11:59:29;;;;;;;6.65;2.80;;;10.50;99.90;;;;;;5068337;28;20032;-46
2023/02/12 12:01:58;;;;;;;6.32;2.65;;;10.50;99.90;;;;;;5050579;28;20029;-45
2023/02/12 12:04:27;;;;;;;9.10;2.72;;;10.50;99.90;;;;;;5071129;28;20024;-45
2023/02/12 12:07:01;;;;;;;6.88;2.70;;;10.40;99.90;;;;;;5084498;28;20541;-56
2023/02/12 12:09:48;;;;;;;5.38;2.58;;;10.40;99.90;;;;;;5063864;28;20052;-55
2023/02/12 12:12:37;;;;;;;8.93;3.20;;;10.30;99.90;;;;;;5054096;28;20052;-45
2023/02/12 12:21:19;;;;;;;8.68;3.50;;;10.20;99.90;;;;;;5048087;28;20064;-46
2023/02/12 12:23:53;;;;;;;9.23;3.38;;;10.10;99.90;;;;;;5064267;28;20036;-47
2023/02/12 12:26:24;;;;;;;7.88;3.08;;;10.00;99.90;;;;;;5047722;28;20025;-48
2023/02/12 12:29:05;;;;;;;6.20;3.50;;;10.10;99.90;;;;;;5064888;28;20060;-47
2023/02/12 12:31:36;;;;;;;9.18;3.45;;;10.00;99.90;;;;;;5044514;28;20032;-48
2023/02/12 12:34:05;;;;;;;8.95;3.40;;;10.00;99.90;;;;;;5086348;28;20035;-46
2023/02/12 12:36:41;;;;;;;7.53;3.80;;;9.90;99.90;;;;;;5056245;28;20028;-48
2023/02/12 12:39:12;;;;;;;7.30;3.55;;;9.80;99.90;;;;;;5087874;28;20428;-47
2023/02/12 12:41:59;;;;;;;11.50;4.18;;;9.70;99.90;;;;;;5066402;28;20388;-49
2023/02/12 12:44:39;;;;;;;10.32;4.20;;;9.70;99.90;;;;;;5087448;28;20032;-48
2023/02/12 12:47:28;;;;;;;8.43;4.25;;;9.60;99.90;;;;;;5063067;28;20028;-45
2023/02/12 12:50:06;;;;;;;10.40;4.55;;;9.50;99.90;;;;;;5072643;28;20031;-45
2023/02/12 12:52:52;;;;;;;8.63;4.55;;;9.50;99.90;;;;;;5065219;28;20040;-47
2023/02/12 12:55:26;;;;;;;8.10;4.07;;;9.60;99.90;;;;;;5047088;28;20036;-51
2023/02/12 12:58:17;;;;;;;8.02;3.47;;;9.70;99.90;;;;;;5067600;28;20020;-47
2023/02/12 13:01:24;;;;;;;7.68;4.25;;;9.70;99.90;;;;;;5053128;28;20049;-46
2023/02/12 13:04:39;;;;;;;6.88;3.50;;;9.80;99.90;;;;;;5048703;28;20050;-48
2023/02/12 13:07:31;;;;;;;8.35;4.55;;;9.80;99.90;;;;;;5049024;28;20147;-44
2023/02/12 13:10:05;;;;;;;5.88;3.40;;;9.90;99.90;;;;;;5046667;28;20040;-51
2023/02/12 13:13:02;;;;;;;4.55;3.13;;;10.00;99.90;;;;;;5061757;28;20039;-48
2023/02/12 13:15:32;;;;;;;6.72;3.58;;;10.10;99.90;;;;;;5046751;28;20109;-50
2023/02/12 13:18:39;;;;;;;6.00;3.13;;;10.20;99.90;;;;;;5071808;28;20430;-50